createdAt,value
2024-02-27T00:02:07.537Z,100464.59
2024-02-27T00:04:33.984Z,100489.94
2024-02-27T00:07:00.492Z,100457.84
2024-02-27T00:09:27.089Z,100495.22
2024-02-27T00:11:55.285Z,100477.00
2024-02-27T00:14:21.779Z,100501.84
2024-02-27T00:16:48.201Z,100493.69
2024-02-27T00:19:14.777Z,100509.81
2024-02-27T00:21:41.306Z,100509.63
2024-02-27T00:24:07.899Z,100501.72
2024-02-27T00:26:34.374Z,100482.22
2024-02-27T00:29:00.733Z,100506.75
2024-02-27T00:31:27.087Z,100509.13
2024-02-27T00:33:53.606Z,100519.00
2024-02-27T00:36:20.245Z,100515.97
2024-02-27T00:38:46.680Z,100503.34
2024-02-27T00:41:13.076Z,100515.38
2024-02-27T00:43:39.540Z,100505.28
2024-02-27T00:46:06.173Z,100501.50
2024-02-27T00:48:32.926Z,100506.31
2024-02-27T00:50:59.505Z,100505.75
2024-02-27T00:53:27.892Z,100500.06
2024-02-27T00:55:54.362Z,100498.91
2024-02-27T00:58:24.356Z,100520.06
2024-02-27T01:00:50.909Z,100507.38
2024-02-27T01:03:17.454Z,100507.63
2024-02-27T01:05:44.132Z,100500.50
2024-02-27T01:08:10.658Z,100515.25
2024-02-27T01:10:37.138Z,100510.22
2024-02-27T01:13:03.986Z,100501.38
2024-02-27T01:15:30.545Z,100496.94
2024-02-27T01:17:57.215Z,100502.75
2024-02-27T01:20:23.730Z,100504.56
2024-02-27T01:22:50.086Z,100501.09
2024-02-27T01:25:16.498Z,100509.53
2024-02-27T01:27:45.881Z,100521.00
2024-02-27T01:30:12.484Z,100512.41
2024-02-27T01:32:39.089Z,100518.75
2024-02-27T01:35:05.918Z,100506.75
2024-02-27T01:37:32.430Z,100495.19
2024-02-27T01:39:58.945Z,100511.38
2024-02-27T01:42:28.205Z,100506.63
2024-02-27T01:44:57.736Z,100515.84
2024-02-27T01:47:24.701Z,100517.00
2024-02-27T01:49:51.773Z,100506.38
2024-02-27T01:52:19.839Z,100499.66
2024-02-27T01:54:49.380Z,100492.88
2024-02-27T01:57:17.052Z,100505.41
2024-02-27T01:59:43.766Z,100507.06
2024-02-27T02:02:10.517Z,100497.03
2024-02-27T02:04:37.113Z,100507.25
2024-02-27T02:07:04.257Z,100487.28
2024-02-27T02:09:31.586Z,100489.06
2024-02-27T02:11:58.317Z,100494.22
2024-02-27T02:14:30.892Z,100480.63
2024-02-27T02:16:57.594Z,100492.13
2024-02-27T02:19:24.318Z,100491.94
2024-02-27T02:21:51.009Z,100490.75
2024-02-27T02:24:19.899Z,100493.78
2024-02-27T02:26:49.923Z,100480.63
2024-02-27T02:29:16.342Z,100488.84
2024-02-27T02:31:42.695Z,100498.63
2024-02-27T02:34:09.293Z,100480.25
2024-02-27T02:36:35.969Z,100490.63
2024-02-27T02:39:04.745Z,100491.41
2024-02-27T02:41:31.298Z,100492.00
2024-02-27T02:43:57.853Z,100488.78
2024-02-27T02:46:24.345Z,100490.38
2024-02-27T02:48:50.870Z,100494.44
2024-02-27T02:51:17.424Z,100468.59
2024-02-27T02:53:43.925Z,100484.38
2024-02-27T02:56:10.304Z,100478.56
2024-02-27T02:58:36.905Z,100476.41
2024-02-27T03:01:03.376Z,100462.97
2024-02-27T03:03:29.831Z,100464.91
2024-02-27T03:05:56.603Z,100472.97
2024-02-27T03:08:23.175Z,100481.03
2024-02-27T03:10:49.717Z,100469.28
2024-02-27T03:13:16.298Z,100474.81
2024-02-27T03:15:42.704Z,100478.25
2024-02-27T03:18:09.275Z,100483.59
2024-02-27T03:20:38.174Z,100473.81
2024-02-27T03:23:04.713Z,100476.41
2024-02-27T03:25:31.092Z,100449.44
2024-02-27T03:27:57.547Z,100478.00
2024-02-27T03:30:24.144Z,100453.81
2024-02-27T03:32:50.698Z,100484.81
2024-02-27T03:35:19.461Z,100462.00
2024-02-27T03:37:45.949Z,100475.66
2024-02-27T03:40:12.402Z,100472.06
2024-02-27T03:42:44.463Z,100463.81
2024-02-27T03:45:11.276Z,100464.41
2024-02-27T03:47:38.039Z,100463.22
2024-02-27T03:50:04.912Z,100448.63
2024-02-27T03:52:31.292Z,100475.28
2024-02-27T03:54:57.792Z,100454.28
2024-02-27T03:57:24.262Z,100454.72
2024-02-27T03:59:50.924Z,100468.59
2024-02-27T04:02:17.292Z,100474.97
2024-02-27T04:04:43.650Z,100471.75
2024-02-27T04:07:10.266Z,100467.94
2024-02-27T04:09:36.846Z,100464.91
2024-02-27T04:12:03.596Z,100465.91
2024-02-27T04:14:32.688Z,100467.34
2024-02-27T04:16:59.200Z,100465.69
2024-02-27T04:19:25.927Z,100476.31
2024-02-27T04:21:52.675Z,100467.34
2024-02-27T04:24:19.104Z,100464.31
2024-02-27T04:26:45.695Z,100447.13
2024-02-27T04:29:12.246Z,100453.50
2024-02-27T04:31:38.634Z,100463.28
2024-02-27T04:34:05.412Z,100454.91
2024-02-27T04:36:32.128Z,100438.66
2024-02-27T04:38:58.665Z,100435.69
2024-02-27T04:41:25.138Z,100440.16
2024-02-27T04:43:51.608Z,100450.56
2024-02-27T04:46:18.175Z,100452.34
2024-02-27T04:48:44.884Z,100428.50
2024-02-27T04:51:11.729Z,100455.50
2024-02-27T04:53:38.546Z,100453.50
2024-02-27T04:56:05.468Z,100463.28
2024-02-27T04:58:31.875Z,100464.13
2024-02-27T05:00:58.455Z,100453.34
2024-02-27T05:03:25.028Z,100468.78
2024-02-27T05:05:53.888Z,100482.00
2024-02-27T05:08:20.387Z,100482.47
2024-02-27T05:10:47.033Z,100490.69
2024-02-27T05:13:13.533Z,100482.09
2024-02-27T05:15:40.143Z,100487.91
2024-02-27T05:18:15.556Z,100486.94
2024-02-27T05:20:42.079Z,100475.06
2024-02-27T05:23:08.566Z,100434.63
2024-02-27T05:25:42.391Z,100467.25
2024-02-27T05:28:08.920Z,100477.25
2024-02-27T05:30:35.375Z,100477.66
2024-02-27T05:33:02.247Z,100467.69
2024-02-27T05:35:28.708Z,100467.47
2024-02-27T05:37:55.284Z,100475.06
2024-02-27T05:40:24.405Z,100476.69
2024-02-27T05:42:50.879Z,100475.66
2024-02-27T05:45:17.468Z,100476.50
2024-02-27T05:47:44.015Z,100486.91
2024-02-27T05:50:10.882Z,100493.13
2024-02-27T05:52:37.318Z,100490.38
2024-02-27T05:55:04.068Z,100491.91
2024-02-27T05:57:30.497Z,100477.25
2024-02-27T05:59:56.919Z,100496.59
2024-02-27T06:02:23.568Z,100500.59
2024-02-27T06:04:49.979Z,100476.59
2024-02-27T06:07:16.765Z,100483.16
2024-02-27T06:09:43.462Z,100477.56
2024-02-27T06:12:10.250Z,100478.78
2024-02-27T06:14:41.162Z,100492.69
2024-02-27T06:17:07.890Z,100490.91
2024-02-27T06:19:34.389Z,100466.63
2024-02-27T06:22:02.699Z,100488.00
2024-02-27T06:24:31.213Z,100457.56
2024-02-27T06:26:57.620Z,100451.03
2024-02-27T06:29:24.058Z,100458.00
2024-02-27T06:31:50.469Z,100475.22
2024-02-27T06:34:19.333Z,100474.44
2024-02-27T06:36:45.834Z,100470.59
2024-02-27T06:39:15.465Z,100474.56
2024-02-27T06:41:41.973Z,100474.72
2024-02-27T06:44:08.456Z,100485.28
2024-02-27T06:46:35.037Z,100466.91
2024-02-27T06:49:07.738Z,100469.81
2024-02-27T06:51:41.465Z,100461.44
2024-02-27T06:54:08.017Z,100462.41
2024-02-27T06:56:34.696Z,100466.13
2024-02-27T06:59:01.112Z,100456.66
2024-02-27T07:01:36.498Z,100435.16
2024-02-27T07:04:03.091Z,100476.53
2024-02-27T07:06:31.073Z,100471.84
2024-02-27T07:08:57.620Z,100456.38
2024-02-27T07:11:24.113Z,100475.94
2024-02-27T07:13:50.671Z,100478.69
2024-02-27T07:16:17.197Z,100462.00
2024-02-27T07:18:43.758Z,100456.78
2024-02-27T07:21:10.421Z,100457.59
2024-02-27T07:23:36.928Z,100461.59
2024-02-27T07:26:03.631Z,100451.56
2024-02-27T07:28:33.651Z,100461.09
2024-02-27T07:31:00.923Z,100442.78
2024-02-27T07:33:27.606Z,100442.22
2024-02-27T07:35:54.046Z,100445.31
2024-02-27T07:38:20.546Z,100429.50
2024-02-27T07:40:46.982Z,100438.50
2024-02-27T07:43:13.424Z,100436.34
2024-02-27T07:45:39.843Z,100477.63
2024-02-27T07:48:11.659Z,100468.75
2024-02-27T07:50:38.161Z,100473.31
2024-02-27T07:53:04.996Z,100491.78
2024-02-27T07:55:31.422Z,100483.94
2024-02-27T07:57:57.837Z,100489.03
2024-02-27T08:00:26.560Z,100491.63
2024-02-27T08:02:53.250Z,100490.75
2024-02-27T08:05:22.867Z,100447.63
2024-02-27T08:07:49.478Z,100475.91
2024-02-27T08:10:16.127Z,100480.59
2024-02-27T08:12:42.696Z,100495.81
2024-02-27T08:15:09.570Z,100491.03
2024-02-27T08:17:36.295Z,100492.88
2024-02-27T08:20:05.253Z,100487.09
2024-02-27T08:22:33.106Z,100498.97
2024-02-27T08:24:59.548Z,100492.25
2024-02-27T08:27:25.939Z,100483.84
2024-02-27T08:29:52.375Z,100492.38
2024-02-27T08:32:18.893Z,100481.31
2024-02-27T08:34:45.384Z,100520.19
2024-02-27T08:37:11.819Z,100523.94
2024-02-27T08:39:41.025Z,100503.56
2024-02-27T08:42:08.148Z,100522.00
2024-02-27T08:44:34.554Z,100531.94
2024-02-27T08:47:01.231Z,100534.00
2024-02-27T08:49:27.908Z,100532.16
2024-02-27T08:51:54.456Z,100543.91
2024-02-27T08:54:23.844Z,100519.19
2024-02-27T08:56:53.338Z,100543.38
2024-02-27T08:59:19.802Z,100563.28
2024-02-27T09:01:48.951Z,100569.69
2024-02-27T09:04:18.767Z,100570.81
2024-02-27T09:06:48.609Z,100593.59
2024-02-27T09:09:15.175Z,100588.97
2024-02-27T09:11:41.694Z,100625.88
2024-02-27T09:14:08.252Z,100614.94
2024-02-27T09:16:34.832Z,100637.75
2024-02-27T09:19:01.478Z,100636.81
2024-02-27T09:21:27.962Z,100671.50
2024-02-27T09:23:54.476Z,100664.53
2024-02-27T09:26:24.175Z,100692.28
2024-02-27T09:28:51.871Z,100697.28
2024-02-27T09:31:24.071Z,100727.41
2024-02-27T09:33:57.860Z,100721.00
2024-02-27T09:36:24.452Z,100768.84
2024-02-27T09:38:50.873Z,100796.22
2024-02-27T09:41:37.059Z,100806.03
2024-02-27T09:44:04.149Z,100828.19
2024-02-27T09:46:32.688Z,100840.53
2024-02-27T09:49:01.187Z,100857.09
2024-02-27T09:51:28.989Z,100876.59
2024-02-27T09:53:57.158Z,100872.28
2024-02-27T09:56:24.937Z,100894.97
2024-02-27T09:58:51.832Z,100945.38
2024-02-27T10:01:18.862Z,100955.84
2024-02-27T10:03:45.935Z,100995.09
2024-02-27T10:06:15.870Z,101022.91
2024-02-27T10:08:48.587Z,101034.53
2024-02-27T10:11:14.999Z,101071.91
2024-02-27T10:13:41.445Z,101083.34
2024-02-27T10:16:08.112Z,101070.34
2024-02-27T10:18:34.897Z,101058.19
2024-02-27T10:21:01.530Z,101080.63
2024-02-27T10:23:29.090Z,101075.53
2024-02-27T10:26:07.674Z,101081.69
2024-02-27T10:28:34.862Z,101074.13
2024-02-27T10:31:05.305Z,101105.16
2024-02-27T10:33:34.639Z,101104.69
2024-02-27T10:36:02.405Z,101148.00
2024-02-27T10:38:28.999Z,101076.66
2024-02-27T10:41:00.669Z,101015.50
2024-02-27T10:43:27.459Z,101133.16
2024-02-27T10:45:57.086Z,101204.47
2024-02-27T10:48:29.492Z,101203.69
2024-02-27T10:51:01.350Z,101311.81
2024-02-27T10:53:29.324Z,101321.97
2024-02-27T10:55:56.832Z,101394.38
2024-02-27T10:58:26.866Z,101482.06
2024-02-27T11:00:53.603Z,101398.91
2024-02-27T11:03:22.714Z,101342.66
2024-02-27T11:05:49.757Z,101449.59
2024-02-27T11:08:17.099Z,101422.66
2024-02-27T11:10:44.129Z,101209.44
2024-02-27T11:13:14.175Z,100640.13
2024-02-27T11:15:43.140Z,100486.19
2024-02-27T11:18:12.101Z,101121.34
2024-02-27T11:20:42.353Z,101573.31
2024-02-27T11:23:08.849Z,101663.88
2024-02-27T11:25:35.914Z,101600.53
2024-02-27T11:28:02.801Z,101587.88
2024-02-27T11:30:30.633Z,101910.16
2024-02-27T11:32:57.800Z,102131.88
2024-02-27T11:35:24.355Z,102209.88
2024-02-27T11:37:51.173Z,102293.47
2024-02-27T11:40:50.404Z,102286.31
2024-02-27T11:43:22.997Z,102320.22
2024-02-27T11:45:49.745Z,102407.31
2024-02-27T11:48:16.625Z,102320.31
2024-02-27T11:50:43.038Z,102361.22
2024-02-27T11:53:19.038Z,102385.31
2024-02-27T11:55:47.349Z,102338.94
2024-02-27T11:58:20.727Z,102324.63
2024-02-27T12:00:48.455Z,102325.31
2024-02-27T12:03:15.282Z,102364.06
2024-02-27T12:05:41.928Z,102391.25
2024-02-27T12:08:08.489Z,102376.03
2024-02-27T12:10:38.260Z,102375.84
2024-02-27T12:13:04.801Z,102380.91
2024-02-27T12:15:31.323Z,102426.22
2024-02-27T12:18:01.196Z,102384.91
2024-02-27T12:20:27.800Z,102369.84
2024-02-27T12:22:55.522Z,102417.88
2024-02-27T12:25:21.988Z,102396.00
2024-02-27T12:27:56.596Z,102378.13
2024-02-27T12:30:24.673Z,102375.13
2024-02-27T12:32:52.289Z,102399.25
2024-02-27T12:35:18.911Z,102410.69
2024-02-27T12:37:47.965Z,102397.09
2024-02-27T12:40:16.439Z,102353.28
2024-02-27T12:42:49.434Z,102356.78
2024-02-27T12:45:17.917Z,102358.19
2024-02-27T12:47:49.334Z,102348.38
2024-02-27T12:50:16.897Z,102361.25
2024-02-27T12:52:45.817Z,102386.84
2024-02-27T12:55:16.696Z,102347.69
2024-02-27T12:57:43.419Z,102341.59
2024-02-27T13:00:10.730Z,102359.34
2024-02-27T13:02:39.977Z,102369.44
2024-02-27T13:05:07.247Z,102373.13
2024-02-27T13:07:45.515Z,102315.84
2024-02-27T13:10:12.036Z,102289.25
2024-02-27T13:12:38.486Z,102316.84
2024-02-27T13:15:07.946Z,102311.97
2024-02-27T13:17:34.543Z,102327.72
2024-02-27T13:20:01.018Z,102333.84
2024-02-27T13:22:27.546Z,102309.84
2024-02-27T13:24:56.654Z,102278.41
2024-02-27T13:27:26.008Z,102326.28
2024-02-27T13:29:52.482Z,102353.75
2024-02-27T13:32:19.016Z,102284.06
2024-02-27T13:34:48.956Z,102297.91
2024-02-27T13:37:15.891Z,102298.44
2024-02-27T13:39:42.536Z,102304.88
2024-02-27T13:42:09.162Z,102278.69
2024-02-27T13:44:35.830Z,102277.88
2024-02-27T13:47:02.333Z,102285.50
2024-02-27T13:49:37.654Z,102272.78
2024-02-27T13:52:07.636Z,102272.41
2024-02-27T13:54:34.506Z,102284.00
2024-02-27T13:57:02.941Z,102267.03
2024-02-27T13:59:31.324Z,102244.28
2024-02-27T14:02:02.423Z,102290.38
2024-02-27T14:04:35.207Z,102257.00
2024-02-27T14:07:01.789Z,102241.03
2024-02-27T14:09:28.437Z,102200.22
2024-02-27T14:11:57.759Z,102187.63
2024-02-27T14:14:24.476Z,102086.16
2024-02-27T14:16:51.091Z,101960.84
2024-02-27T14:19:20.385Z,101910.25
2024-02-27T14:21:47.353Z,102001.03
2024-02-27T14:24:13.915Z,101979.91
2024-02-27T14:26:40.633Z,102018.91
2024-02-27T14:29:10.176Z,101957.06
2024-02-27T14:31:36.686Z,101959.81
2024-02-27T14:34:06.042Z,101953.50
2024-02-27T14:36:34.812Z,101912.09
2024-02-27T14:39:04.133Z,101885.75
2024-02-27T14:41:30.795Z,101792.06
2024-02-27T14:43:57.272Z,101750.78
2024-02-27T14:46:26.929Z,101741.72
2024-02-27T14:48:53.832Z,101693.50
2024-02-27T14:51:20.730Z,101602.06
2024-02-27T14:53:48.633Z,101519.53
2024-02-27T14:56:18.584Z,101481.03
2024-02-27T14:58:45.125Z,101431.81
2024-02-27T15:01:11.830Z,101320.00
2024-02-27T15:03:38.458Z,101215.38
2024-02-27T15:06:05.805Z,101069.34
2024-02-27T15:08:32.347Z,100623.47
2024-02-27T15:11:03.577Z,100089.91
2024-02-27T15:13:30.209Z,99346.94
2024-02-27T15:15:56.883Z,99004.16
2024-02-27T15:18:23.645Z,98835.91
2024-02-27T15:20:50.433Z,99634.91
2024-02-27T15:23:16.972Z,100587.06
2024-02-27T15:25:43.826Z,100854.78
2024-02-27T15:28:10.295Z,100880.25
2024-02-27T15:30:36.798Z,100930.59
2024-02-27T15:33:06.415Z,100945.41
2024-02-27T15:35:32.873Z,100940.25
2024-02-27T15:37:59.267Z,100948.72
2024-02-27T15:40:27.994Z,100967.41
2024-02-27T15:42:54.472Z,100979.09
2024-02-27T15:45:21.060Z,101040.28
2024-02-27T15:47:47.886Z,101085.09
2024-02-27T15:50:14.319Z,101130.19
2024-02-27T15:52:40.855Z,101185.56
2024-02-27T15:55:07.604Z,101380.03
2024-02-27T15:57:34.234Z,101426.78
2024-02-27T16:00:00.672Z,101456.31
2024-02-27T16:02:27.845Z,101487.69
2024-02-27T16:05:01.425Z,101416.97
2024-02-27T16:07:39.700Z,101335.00
2024-02-27T16:10:08.933Z,101286.09
2024-02-27T16:12:37.982Z,101233.47
2024-02-27T16:15:07.546Z,101190.09
2024-02-27T16:17:39.899Z,101217.66
2024-02-27T16:20:07.359Z,101199.88
2024-02-27T16:22:34.304Z,101167.53
2024-02-27T16:25:00.904Z,101155.31
2024-02-27T16:27:27.648Z,101126.75
2024-02-27T16:29:57.065Z,101115.41
2024-02-27T16:32:35.513Z,101076.41
2024-02-27T16:35:04.472Z,101057.56
2024-02-27T16:37:30.914Z,101065.25
2024-02-27T16:40:00.546Z,101053.22
2024-02-27T16:42:27.086Z,101065.31
2024-02-27T16:44:53.577Z,101052.66
2024-02-27T16:47:22.354Z,101042.41
2024-02-27T16:49:49.113Z,101062.34
2024-02-27T16:52:15.657Z,101039.66
2024-02-27T16:54:44.812Z,101009.16
2024-02-27T16:57:11.222Z,101004.59
2024-02-27T16:59:37.713Z,100978.41
2024-02-27T17:02:05.426Z,100982.81
2024-02-27T17:04:31.930Z,100961.34
2024-02-27T17:06:58.589Z,100934.34
2024-02-27T17:09:25.137Z,100907.34
2024-02-27T17:11:51.675Z,100880.81
2024-02-27T17:14:21.337Z,100874.63
2024-02-27T17:16:47.953Z,100894.59
2024-02-27T17:19:14.658Z,100869.75
2024-02-27T17:21:41.366Z,100871.72
2024-02-27T17:24:07.885Z,100868.28
2024-02-27T17:26:34.406Z,100840.50
2024-02-27T17:29:00.947Z,100819.38
2024-02-27T17:31:29.723Z,100811.25
2024-02-27T17:33:56.350Z,100805.34
2024-02-27T17:36:22.935Z,100819.19
2024-02-27T17:38:51.844Z,100792.19
2024-02-27T17:41:18.351Z,100815.53
2024-02-27T17:43:44.720Z,100805.19
2024-02-27T17:46:13.668Z,100793.75
2024-02-27T17:48:40.332Z,100780.00
2024-02-27T17:51:07.045Z,100770.31
2024-02-27T17:53:33.643Z,100743.34
2024-02-27T17:56:00.158Z,100749.09
2024-02-27T17:58:26.685Z,100726.41
2024-02-27T18:00:53.231Z,100707.81
2024-02-27T18:03:19.962Z,100695.22
2024-02-27T18:05:46.708Z,100688.88
2024-02-27T18:08:13.423Z,100668.31
2024-02-27T18:10:40.067Z,100657.56
2024-02-27T18:13:12.177Z,100640.81
2024-02-27T18:15:38.822Z,100632.41
2024-02-27T18:18:05.933Z,100603.75
2024-02-27T18:20:32.885Z,100635.53
2024-02-27T18:22:59.490Z,100594.09
2024-02-27T18:25:27.743Z,100581.34
2024-02-27T18:27:54.280Z,100626.78
2024-02-27T18:30:20.857Z,100622.06
2024-02-27T18:32:47.980Z,100591.91
2024-02-27T18:35:14.621Z,100609.00
2024-02-27T18:37:41.098Z,100577.34
2024-02-27T18:40:16.555Z,100584.03
2024-02-27T18:42:43.385Z,100526.06
2024-02-27T18:45:12.527Z,100535.06
2024-02-27T18:47:39.258Z,100522.91
2024-02-27T18:50:06.445Z,100523.78
2024-02-27T18:52:32.974Z,100533.06
2024-02-27T18:54:59.593Z,100519.47
2024-02-27T18:57:26.161Z,100552.25
2024-02-27T18:59:52.721Z,100551.22
2024-02-27T19:02:21.217Z,100557.91
2024-02-27T19:04:47.792Z,100522.16
2024-02-27T19:07:14.435Z,100507.59
2024-02-27T19:09:41.289Z,100503.53
2024-02-27T19:12:08.572Z,100529.34
2024-02-27T19:14:35.441Z,100544.16
2024-02-27T19:17:12.123Z,100510.38
2024-02-27T19:19:38.841Z,100521.19
2024-02-27T19:22:12.522Z,100509.72
2024-02-27T19:24:39.277Z,100475.75
2024-02-27T19:27:13.529Z,100466.31
2024-02-27T19:29:43.069Z,100474.09
2024-02-27T19:32:09.657Z,100499.28
2024-02-27T19:34:39.461Z,100478.69
2024-02-27T19:37:08.578Z,100440.94
2024-02-27T19:39:35.124Z,100483.22
2024-02-27T19:42:03.317Z,100462.56
2024-02-27T19:44:29.945Z,100492.56
2024-02-27T19:46:57.482Z,100491.97
2024-02-27T19:49:24.199Z,100488.41
2024-02-27T19:52:01.093Z,100442.34
2024-02-27T19:54:27.735Z,100443.81
2024-02-27T19:56:55.394Z,100453.13
2024-02-27T19:59:22.022Z,100422.16
2024-02-27T20:01:50.697Z,100392.38
2024-02-27T20:04:17.286Z,100386.19
2024-02-27T20:06:48.060Z,100387.38
2024-02-27T20:09:14.875Z,100382.16
2024-02-27T20:11:41.779Z,100401.16
2024-02-27T20:14:12.487Z,100346.88
2024-02-27T20:16:47.802Z,100337.88
2024-02-27T20:19:15.483Z,100360.56
2024-02-27T20:21:42.250Z,100323.84
2024-02-27T20:24:09.093Z,100306.16
2024-02-27T20:26:41.507Z,100309.72
2024-02-27T20:29:10.300Z,100286.97
2024-02-27T20:31:36.862Z,100274.50
2024-02-27T20:34:05.209Z,100274.78
2024-02-27T20:36:34.583Z,100254.91
2024-02-27T20:39:06.032Z,100244.75
2024-02-27T20:41:32.550Z,100247.31
2024-02-27T20:44:01.795Z,100278.13
2024-02-27T20:46:28.395Z,100264.72
2024-02-27T20:48:59.608Z,100251.81
2024-02-27T20:51:26.226Z,100242.09
2024-02-27T20:53:52.718Z,100234.41
2024-02-27T20:56:21.357Z,100239.16
2024-02-27T20:58:47.816Z,100215.84
2024-02-27T21:01:17.357Z,100228.03
2024-02-27T21:03:43.926Z,100211.84
2024-02-27T21:06:14.645Z,100210.25
2024-02-27T21:08:47.087Z,100198.25
2024-02-27T21:11:13.654Z,100181.22
2024-02-27T21:13:40.256Z,100203.09
2024-02-27T21:16:06.800Z,100178.97
2024-02-27T21:18:33.638Z,100208.38
2024-02-27T21:21:00.063Z,100192.72
2024-02-27T21:23:26.503Z,100173.13
2024-02-27T21:25:52.956Z,100174.06
2024-02-27T21:28:21.997Z,100157.88
2024-02-27T21:30:48.528Z,100130.81
2024-02-27T21:33:18.189Z,100139.16
2024-02-27T21:35:45.000Z,100126.22
2024-02-27T21:38:11.571Z,100110.66
2024-02-27T21:40:37.982Z,100107.31
2024-02-27T21:43:04.663Z,100091.28
2024-02-27T21:45:31.168Z,100073.38
2024-02-27T21:47:57.671Z,100060.19
2024-02-27T21:50:29.405Z,100040.69
2024-02-27T21:52:58.048Z,100043.66
2024-02-27T21:55:24.522Z,100016.06
2024-02-27T21:57:53.219Z,99990.66
2024-02-27T22:00:24.950Z,99994.09
2024-02-27T22:02:56.539Z,100013.28
2024-02-27T22:05:25.685Z,99957.25
2024-02-27T22:07:54.715Z,99980.66
2024-02-27T22:10:21.230Z,99977.94
2024-02-27T22:12:47.779Z,99951.50
2024-02-27T22:15:14.412Z,99989.53
2024-02-27T22:17:40.942Z,99915.25
2024-02-27T22:20:07.971Z,99905.59
2024-02-27T22:22:37.257Z,99887.41
2024-02-27T22:25:03.921Z,99916.59
2024-02-27T22:27:30.291Z,99902.28
2024-02-27T22:29:56.756Z,99884.25
2024-02-27T22:32:23.137Z,99885.06
2024-02-27T22:34:50.814Z,99837.44
2024-02-27T22:37:17.562Z,99842.06
2024-02-27T22:39:44.014Z,99850.81
2024-02-27T22:42:10.555Z,99856.47
2024-02-27T22:44:37.158Z,99875.31
2024-02-27T22:47:03.643Z,99833.44
2024-02-27T22:49:33.115Z,99877.22
2024-02-27T22:51:59.778Z,99865.66
2024-02-27T22:54:29.491Z,99852.75
2024-02-27T22:56:56.049Z,99836.97
2024-02-27T22:59:24.404Z,99825.28
2024-02-27T23:01:50.945Z,99817.69
2024-02-27T23:04:17.478Z,99799.75
2024-02-27T23:06:44.193Z,99779.78
2024-02-27T23:09:10.842Z,99771.75
2024-02-27T23:11:37.344Z,99753.13
2024-02-27T23:14:03.869Z,99715.03
2024-02-27T23:16:30.207Z,99705.38
2024-02-27T23:18:56.652Z,99686.66
2024-02-27T23:21:23.125Z,99703.41
2024-02-27T23:23:49.598Z,99676.44
2024-02-27T23:26:15.996Z,99670.28
2024-02-27T23:28:42.388Z,99669.84
2024-02-27T23:31:08.773Z,99684.47
2024-02-27T23:33:35.403Z,99709.78
2024-02-27T23:36:02.090Z,99719.44
2024-02-27T23:38:30.321Z,99704.50
2024-02-27T23:40:56.751Z,99729.63
2024-02-27T23:43:23.349Z,99715.25
2024-02-27T23:45:50.068Z,99738.22
2024-02-27T23:48:16.839Z,99738.84
2024-02-27T23:50:43.473Z,99755.38
2024-02-27T23:53:09.839Z,99748.50
2024-02-27T23:55:36.957Z,99759.81
2024-02-27T23:58:04.031Z,99769.22
